Edmonton, Australia
Current Conditions -  °F | °C
As of 2:00 PM on Monday 22 Dec 2014 (Local Time) from YBCS Reporting Station
Rain Showers Rain Showers  
Wind Chill: 79°   Ceiling: 3500
Heat Index: 82°   Visibility: 6mi
Dew Point: 73°   Wind: 15mph
Humidity: 83%   Direction: 180°S
Pressure: 29.85"   Gusts: NA
Location:  17.02°S, 145.74°E
Report Text: YBCS 220400Z 18013KT 9999 VCSH FEW010 SCT023 BKN035 26/23 Q1011
Loading
Personal Weather Stations






























Interactive Weather Map New forecast layout! Learn more

10-Day Weather Forecast

Advertisements
Track Severe Weather on mobile